Data for 06/09/2005

Time Sea-Level Adjusted Pressure Absolute Pressure Temperature Relative Humidity Dew Point   
(mb) (inHg) (mb) (inHg) (C) (F) (%) (C) (F)
00:05 1015 29.97 844 24.92 5.9 42.7 81 3 37.3
00:10 1015 29.97 844 24.92 6 42.8 79 2.7 36.9
00:15 1015 29.97 844 24.92 6 42.9 79 2.6 36.7
00:20 1015 29.97 844 24.92 5.9 42.6 80 2.6 36.7
00:25 1015 29.97 844 24.92 5.7 42.3 80 2.6 36.8
00:30 1015 29.97 844 24.92 5.6 42.2 81 2.7 36.8
00:35 1015 29.97 844 24.92 5.7 42.2 80 2.5 36.5
00:40 1015 29.97 844 24.92 5.7 42.3 80 2.5 36.5
00:45 1015 29.97 844 24.92 5.6 42 80 2.5 36.5
00:50 1015 29.97 844 24.92 5.4 41.8 81 2.4 36.3
00:55 1015 29.97 844 24.92 5.4 41.6 81 2.4 36.3
01:00 1015 29.97 844 24.92 5.3 41.5 82 2.5 36.4
01:05 1015 29.97 844 24.92 5.2 41.3 83 2.5 36.5
01:10 1015 29.97 844 24.92 5.2 41.3 83 2.5 36.5
01:15 1015 29.97 844 24.92 5.2 41.4 82 2.5 36.4
01:20 1015 29.97 844 24.92 5.2 41.4 82 2.5 36.5
01:25 1015 29.97 844 24.92 5.2 41.3 83 2.5 36.5
01:30 1015 29.97 844 24.92 5.2 41.3 83 2.5 36.5
01:35 1015 29.97 844 24.92 5.1 41.1 83 2.5 36.4
01:40 1015 29.97 844 24.92 4.9 40.9 84 2.5 36.4
01:45 1015 29.97 844 24.92 4.7 40.5 86 2.5 36.5
01:50 1015 29.97 844 24.92 4.7 40.4 85 2.4 36.4
01:55 1015 29.97 844 24.92 4.6 40.2 85 2.3 36.2
02:00 1015 29.97 844 24.92 4.7 40.4 85 2.3 36.2
02:05 1015 29.97 844 24.92 4.6 40.3 86 2.4 36.4
02:10 1015 29.97 844 24.92 4.5 40 86 2.3 36.2
02:15 1015 29.97 844 24.92 4.4 40 85 2.1 35.8
02:20 1015 29.97 844 24.92 4.5 40 85 2.1 35.8
02:25 1015 29.97 844 24.92 4.4 39.9 85 2.2 35.9
02:30 1015 29.97 844 24.92 4.5 40 85 2.2 35.9
02:35 1015 29.97 844 24.92 4.4 40 85 2.2 35.9
02:40 1015 29.97 844 24.92 4.5 40.1 85 2.2 36
02:45 1015 29.97 844 24.92 4.4 39.9 86 2.3 36.2
02:50 1015 29.97 844 24.92 4.1 39.4 88 2.3 36.1
02:55 1015 29.97 844 24.92 4.1 39.4 88 2.3 36.1
03:00 1015 29.97 844 24.92 4.2 39.6 87 2.2 36
03:05 1015 29.97 844 24.92 4.2 39.6 87 2.2 35.9
03:10 1015 29.97 844 24.92 4.2 39.6 85 2 35.5
03:15 1015 29.97 844 24.92 4.4 39.8 86 2.2 36
03:20 1015 29.97 844 24.92 4.4 39.9 87 2.3 36.2
03:25 1015 29.97 844 24.92 4.4 39.9 86 2.3 36.2
03:30 1015 29.97 844 24.92 4.4 39.9 87 2.5 36.4
03:35 1015 29.97 844 24.92 4.3 39.8 88 2.5 36.5
03:40 1015 29.97 844 24.92 4.3 39.7 88 2.5 36.5
03:45 1015 29.97 844 24.92 4.2 39.6 88 2.4 36.3
03:50 1015 29.97 844 24.92 4.1 39.4 89 2.5 36.4
03:55 1015 29.97 844 24.92 4 39.3 89 2.3 36.2
04:00 1015 29.97 844 24.92 4 39.3 89 2.4 36.3
04:05 1015 29.97 844 24.92 4.1 39.5 88 2.4 36.3
04:10 1015 29.97 844 24.92 4.3 39.7 88 2.5 36.4
04:15 1015 29.97 844 24.92 4.3 39.7 88 2.5 36.5
04:20 1015 29.97 844 24.92 4.3 39.8 88 2.5 36.5
04:25 1015 29.97 844 24.92 4.5 40.1 86 2.4 36.3
04:30 1015 29.97 844 24.92 4.6 40.3 87 2.6 36.7
04:35 1015 29.97 844 24.92 4.5 40.2 88 2.7 36.8
04:40 1015 29.97 844 24.92 4.4 40 88 2.6 36.6
04:45 1015 29.97 844 24.92 4.4 40 87 2.5 36.5
04:50 1015 29.97 844 24.92 4.5 40.1 87 2.6 36.6
04:55 1015 29.97 844 24.92 4.4 40 89 2.8 37
05:00 1015 29.97 844 24.92 4.4 40 89 2.7 36.8
05:05 1015 29.97 844 24.92 4.6 40.3 87 2.6 36.8
05:10 1015 29.97 844 24.92 4.8 40.7 86 2.6 36.7
05:15 1015 29.97 844 24.92 4.9 40.8 86 2.8 37
05:20 1015 29.97 844 24.92 5 41 86 2.9 37.1
05:25 1015 29.97 844 24.92 5.1 41.2 86 3 37.4
05:30 1015 29.97 844 24.92 5.2 41.4 85 2.8 37.1
05:35 1015 29.97 844 24.92 5.1 41.2 84 2.7 36.8
05:40 1015 29.97 844 24.92 5 41 84 2.6 36.7
05:45 1015 29.97 844 24.92 5 40.9 86 2.8 37
05:50 1015 29.97 844 24.92 4.9 40.8 86 2.7 36.9
05:55 1015 29.97 844 24.92 4.9 40.9 84 2.5 36.5
06:00 1015 29.97 844 24.92 5 41 84 2.5 36.6
06:05 1015 29.97 844 24.92 5 41.1 84 2.6 36.7
06:10 1015 29.97 845 24.95 5.1 41.2 84 2.6 36.6
06:15 1015 29.97 845 24.95 5.2 41.3 84 2.6 36.8
06:20 1015 29.97 844 24.92 5.3 41.6 83 2.7 36.9
06:25 1015 29.97 844 24.92 5.4 41.6 84 2.8 37.1
06:30 1015 29.97 845 24.95 5.4 41.8 84 2.9 37.3
06:35 1015 29.97 844 24.92 5.4 41.8 83 2.9 37.2
06:40 1015 29.97 845 24.95 5.3 41.5 85 2.9 37.2
06:45 1015 29.97 845 24.95 5.3 41.5 85 2.9 37.2
06:50 1015 29.97 845 24.95 5.3 41.6 84 2.9 37.2
06:55 1015 29.97 845 24.95 5.5 41.9 84 2.9 37.3
07:00 1015 29.97 845 24.95 5.6 42.1 83 2.9 37.3
07:05 1015 29.97 845 24.95 5.8 42.4 83 3.1 37.6
07:10 1016 30 845 24.95 6 42.7 80 2.8 37.1
07:15 1016 30 845 24.95 6.1 43 80 2.9 37.1
07:20 1016 30 845 24.95 6.2 43.2 79 3 37.3
07:25 1016 30 845 24.95 6.4 43.5 78 2.9 37.2
07:30 1016 30 845 24.95 6.5 43.8 79 3.2 37.7
07:35 1016 30 845 24.95 6.4 43.6 80 3.3 37.9
07:40 1016 30 845 24.95 6.4 43.6 81 3.4 38.1
07:45 1016 30 845 24.95 6.5 43.8 80 3.3 37.9
07:50 1016 30 845 24.95 6.6 43.9 81 3.5 38.3
07:55 1016 30 845 24.95 6.7 44 83 4 39.1
08:00 1016 30 845 24.95 6.6 43.9 82 3.7 38.7
08:05 1016 30 845 24.95 6.6 43.9 84 4 39.2
08:10 1016 30 845 24.95 6.5 43.6 84 4 39.1
08:15 1016 30 845 24.95 6.1 43 85 3.8 38.8
08:20 1016 30 845 24.95 6.1 42.9 84 3.6 38.5
08:25 1016 30 845 24.95 6.4 43.5 79 3 37.4
08:30 1016 30 845 24.95 6.4 43.5 80 3.1 37.6
08:35 1016 30 845 24.95 6.5 43.6 83 3.7 38.7
08:40 1016 30 845 24.95 6.6 43.8 83 3.9 39.1
08:45 1016 30 845 24.95 6.2 43.2 86 4 39.2
08:50 1016 30 845 24.95 6.1 43 88 4.3 39.7
08:55 1016 30 845 24.95 6.4 43.5 86 4.2 39.5
09:00 1016 30 845 24.95 6.6 43.9 81 3.6 38.5
09:05 1016 30 845 24.95 6.4 43.6 82 3.5 38.3
09:10 1016 30 845 24.95 5.9 42.6 85 3.5 38.4
09:15 1016 30 845 24.95 5.9 42.5 81 2.9 37.3
09:20 1016 30 845 24.95 5.7 42.3 84 3.2 37.8
09:25 1016 30 845 24.95 5.8 42.4 84 3.3 37.9
09:30 1016 30 845 24.95 5.9 42.7 82 3.1 37.5
09:35 1016 30 845 24.95 6.1 42.9 82 3.3 37.9
09:40 1016 30 845 24.95 6.5 43.7 79 3.2 37.7
09:45 1016 30 845 24.95 6.8 44.2 78 3.2 37.8
09:50 1016 30 845 24.95 7.2 45 77 3.5 38.2
09:55 1016 30 845 24.95 7.2 45 81 4.2 39.6
10:00 1016 30 845 24.95 7.3 45.1 83 4.5 40.1
10:05 1016 30 845 24.95 7.2 45 80 4.1 39.3
10:10 1016 30 845 24.95 7 44.5 83 4.4 39.8
10:15 1016 30 845 24.95 6.6 43.9 87 4.5 40.2
10:20 1016 30 845 24.95 6.2 43.1 87 4.2 39.5
10:25 1016 30 845 24.95 6.1 43 87 4.2 39.5
10:30 1016 30 845 24.95 6.1 43 86 3.9 39
10:35 1016 30 845 24.95 6.2 43.1 87 4.2 39.5
10:40 1016 30 845 24.95 6 42.8 88 4.2 39.6
10:45 1016 30 845 24.95 6 42.8 89 4.3 39.7
10:50 1016 30 845 24.95 6.1 43 88 4.3 39.8
10:55 1016 30 845 24.95 6.2 43.2 87 4.2 39.6
11:00 1016 30 845 24.95 6.1 43 85 3.8 38.8
11:05 1016 30 845 24.95 6.1 43 86 4 39.1
11:10 1016 30 845 24.95 6.3 43.4 83 3.6 38.6
11:15 1016 30 845 24.95 6.4 43.5 82 3.5 38.3
11:20 1016 30 845 24.95 6.8 44.2 81 3.7 38.7
11:25 1016 30 845 24.95 7.3 45.1 79 3.8 38.8
11:30 1016 30 845 24.95 8 46.3 81 5 40.9
11:35 1016 30 845 24.95 9 48.3 72 4.3 39.8
11:40 1016 30 845 24.95 8.9 48 74 4.5 40
11:45 1016 30 845 24.95 8.8 47.9 78 5.3 41.5
11:50 1016 30 845 24.95 8.7 47.6 74 4.2 39.6
11:55 1016 30 845 24.95 8.8 47.8 71 3.8 38.9
12:00 1016 30 845 24.95 9.3 48.7 68 3.7 38.7
12:05 1016 30 845 24.95 8.7 47.6 68 3.2 37.7
12:10 1016 30 845 24.95 8.5 47.4 70 3.4 38.1
12:15 1016 30 845 24.95 9.2 48.6 66 3.3 37.9
12:20 1016 30 845 24.95 9.4 48.9 64 3 37.4
12:25 1015 29.97 845 24.95 9.6 49.2 64 3.2 37.7
12:30 1015 29.97 845 24.95 10.3 50.5 63 3.5 38.3
12:35 1015 29.97 845 24.95 10.6 51 61 3.3 37.9
12:40 1015 29.97 845 24.95 10.7 51.2 60 3.3 38
12:45 1015 29.97 844 24.92 11.4 52.6 58 3.6 38.4
12:50 1015 29.97 844 24.92 12.4 54.3 54 3.3 37.9
12:55 1015 29.97 844 24.92 12.4 54.4 55 3.7 38.7
13:00 1015 29.97 844 24.92 12.6 54.7 52 3 37.4
13:05 1015 29.97 844 24.92 12.2 53.9 49 1.8 35.3
13:10 1015 29.97 844 24.92 12 53.5 52 2.6 36.7
13:15 1015 29.97 844 24.92 12.3 54.1 53 3.1 37.5
13:20 1015 29.97 844 24.92 12.5 54.4 51 2.6 36.7
13:25 1015 29.97 844 24.92 12.8 55.1 47 2 35.6
13:30 1015 29.97 844 24.92 12.9 55.2 48 2.2 35.9
13:35 1015 29.97 844 24.92 11.8 53.3 51 2 35.6
13:40 1015 29.97 844 24.92 11.6 52.8 52 2 35.7
13:45 1015 29.97 844 24.92 11.6 53 55 3.1 37.5
13:50 1015 29.97 844 24.92 12 53.6 55 3.4 38
13:55 1015 29.97 844 24.92 12.3 54.2 58 4.4 39.9
14:00 1015 29.97 844 24.92 12.9 55.2 51 3.2 37.7
14:05 1015 29.97 844 24.92 13.3 55.9 49 2.8 37
14:10 1015 29.97 844 24.92 13.1 55.6 48 2.5 36.5
14:15 1015 29.97 844 24.92 13.3 55.9 50 3.1 37.6
14:20 1015 29.97 844 24.92 13.3 55.9 48 2.5 36.5
14:25 1015 29.97 844 24.92 13.2 55.8 47 2.3 36.1
14:30 1015 29.97 844 24.92 13.2 55.7 48 2.5 36.6
14:35 1015 29.97 844 24.92 13 55.4 47 2.1 35.8
14:40 1015 29.97 844 24.92 12.9 55.3 47 2.1 35.8
14:45 1015 29.97 844 24.92 12.3 54.2 52 2.8 37
14:50 1015 29.97 844 24.92 11.7 53.1 54 2.6 36.8
14:55 1015 29.97 844 24.92 11.6 52.8 54 2.5 36.5
15:00 1015 29.97 844 24.92 11.4 52.4 53 2.2 35.9
15:05 1015 29.97 844 24.92 11.3 52.4 50 1.4 34.5
15:10 1015 29.97 844 24.92 11.6 52.9 51 2 35.6
15:15 1015 29.97 844 24.92 11.7 53 55 2.9 37.3
15:20 1015 29.97 845 24.95 11.2 52.2 62 4.2 39.5
15:25 1015 29.97 845 24.95 9.8 49.7 62 3 37.4
15:30 1015 29.97 844 24.92 10 50 62 3 37.5
15:35 1015 29.97 844 24.92 10.1 50.2 59 2.4 36.3
15:40 1015 29.97 844 24.92 11 51.7 51 1.2 34.2
15:45 1015 29.97 844 24.92 12 53.6 50 2 35.6
15:50 1015 29.97 844 24.92 12.7 54.9 47 1.9 35.4
15:55 1015 29.97 844 24.92 12.7 54.8 49 2.3 36.1
16:00 1015 29.97 844 24.92 12.3 54.1 53 3.1 37.6
16:05 1015 29.97 844 24.92 11.7 53.1 56 3.2 37.8
16:10 1015 29.97 844 24.92 11.8 53.3 59 4.2 39.6
16:15 1015 29.97 844 24.92 10.6 51 64 4.1 39.4
16:20 1015 29.97 844 24.92 9.6 49.3 73 4.9 40.9
16:25 1015 29.97 844 24.92 9.5 49.1 67 3.7 38.6
16:30 1015 29.97 844 24.92 9.7 49.4 69 4.4 39.9
16:35 1015 29.97 844 24.92 10.1 50.3 68 4.5 40.2
16:40 1015 29.97 844 24.92 10.9 51.7 64 4.3 39.8
16:45 1015 29.97 844 24.92 11.3 52.4 69 5.8 42.5
16:50 1015 29.97 844 24.92 11.9 53.4 63 5.1 41.2
16:55 1015 29.97 844 24.92 11.6 52.9 63 4.9 40.9
17:00 1015 29.97 844 24.92 11.7 53 60 4.1 39.4
17:05 1015 29.97 844 24.92 11.5 52.7 62 4.4 40
17:10 1015 29.97 845 24.95 10.2 50.4 69 4.8 40.6
17:15 1015 29.97 845 24.95 9.6 49.4 66 3.6 38.6
17:20 1015 29.97 844 24.92 9.9 49.8 66 4 39.1
17:25 1015 29.97 844 24.92 10.9 51.5 68 5.3 41.5
17:30 1015 29.97 844 24.92 11.7 53 62 4.6 40.3
17:35 1015 29.97 844 24.92 11.8 53.2 61 4.6 40.2
17:40 1015 29.97 844 24.92 11.7 53.1 56 3.3 37.9
17:45 1015 29.97 844 24.92 11.6 52.8 56 3.2 37.7
17:50 1015 29.97 844 24.92 11.7 53.1 57 3.4 38.2
17:55 1015 29.97 844 24.92 12 53.5 56 3.5 38.3
18:00 1015 29.97 844 24.92 11.8 53.3 57 3.6 38.5
18:05 1015 29.97 844 24.92 11.4 52.5 62 4.4 39.9
18:10 1015 29.97 844 24.92 10.4 50.7 64 3.9 39.1
18:15 1015 29.97 844 24.92 10.5 50.8 65 4.1 39.4
18:20 1015 29.97 844 24.92 10.8 51.5 62 3.9 39
18:25 1015 29.97 844 24.92 10.8 51.4 62 3.9 39
18:30 1015 29.97 844 24.92 10.6 51.1 63 4 39.1
18:35 1015 29.97 844 24.92 10.4 50.7 61 3.2 37.7
18:40 1015 29.97 844 24.92 10.4 50.7 62 3.4 38.1
18:45 1015 29.97 844 24.92 10.5 50.9 60 3.2 37.8
18:50 1015 29.97 844 24.92 10.5 50.9 61 3.4 38.1
18:55 1015 29.97 844 24.92 10.7 51.3 61 3.4 38.2
19:00 1015 29.97 844 24.92 10.8 51.4 63 4 39.2
19:05 1015 29.97 844 24.92 11.1 52 57 3 37.4
19:10 1015 29.97 844 24.92 11.2 52.1 58 3.2 37.8
19:15 1015 29.97 844 24.92 11.2 52.1 58 3.2 37.7
19:20 1015 29.97 844 24.92 11.2 52.2 59 3.5 38.3
19:25 1015 29.97 844 24.92 11.3 52.3 59 3.6 38.4
19:30 1015 29.97 844 24.92 11.5 52.6 58 3.6 38.5
19:35 1015 29.97 844 24.92 11.6 52.8 58 3.6 38.5
19:40 1015 29.97 844 24.92 11.9 53.4 57 3.6 38.5
19:45 1015 29.97 844 24.92 12 53.5 57 3.6 38.5
19:50 1015 29.97 844 24.92 11.9 53.3 57 3.6 38.6
19:55 1015 29.97 844 24.92 11.8 53.2 55 3 37.3
20:00 1015 29.97 844 24.92 11.8 53.2 52 2.3 36.2
20:05 1015 29.97 844 24.92 11.8 53.2 51 2.1 35.8
20:10 1015 29.97 844 24.92 11.6 53 53 2.4 36.4
20:15 1015 29.97 844 24.92 11.6 52.8 53 2.4 36.3
20:20 1015 29.97 844 24.92 11.6 52.8 54 2.5 36.6
20:25 1015 29.97 844 24.92 11.7 53 55 2.9 37.3
20:30 1015 29.97 844 24.92 11.6 52.9 54 2.8 37
20:35 1015 29.97 844 24.92 11.6 52.8 55 2.8 37.1
20:40 1015 29.97 844 24.92 11.5 52.6 55 2.7 36.9
20:45 1015 29.97 844 24.92 11.4 52.5 55 2.8 37
20:50 1015 29.97 844 24.92 11.4 52.5 55 2.8 37
20:55 1015 29.97 844 24.92 11.4 52.4 56 2.9 37.3
21:00 1015 29.97 844 24.92 11.3 52.3 55 2.6 36.7
21:05 1015 29.97 844 24.92 11.3 52.3 56 2.8 37.1
21:10 1015 29.97 844 24.92 11.2 52.1 57 3 37.5
21:15 1015 29.97 844 24.92 11.1 51.9 56 2.6 36.6
21:20 1015 29.97 844 24.92 11.2 52.1 51 1.6 34.9
21:25 1015 29.97 844 24.92 11.4 52.6 49 1.1 34
21:30 1015 29.97 844 24.92 11.6 52.9 49 1.2 34.1
21:35 1015 29.97 844 24.92 11.6 52.9 52 2.1 35.7
21:40 1015 29.97 844 24.92 11.6 52.8 53 2.2 36
21:45 1015 29.97 844 24.92 11.4 52.6 53 2.3 36.1
21:50 1015 29.97 844 24.92 11.4 52.6 48 1 33.8
21:55 1015 29.97 844 24.92 11.5 52.8 51 1.8 35.2
22:00 1015 29.97 844 24.92 11.5 52.6 52 2 35.6
22:05 1015 29.97 844 24.92 11.4 52.6 53 2.1 35.8
22:10 1015 29.97 844 24.92 11 51.8 57 2.8 37.1
22:15 1015 29.97 844 24.92 10.3 50.5 57 2.2 36
22:20 1015 29.97 844 24.92 10.3 50.6 58 2.4 36.3
22:25 1015 29.97 844 24.92 10.2 50.4 58 2.3 36.1
22:30 1015 29.97 844 24.92 10.3 50.5 56 2 35.6
22:35 1015 29.97 844 24.92 10.5 50.8 58 2.5 36.5
22:40 1015 29.97 844 24.92 10.2 50.3 61 3 37.5
22:45 1015 29.97 844 24.92 9.9 49.9 62 3 37.5
22:50 1015 29.97 844 24.92 9.9 49.8 62 2.9 37.3
22:55 1015 29.97 844 24.92 10 50.1 62 3.1 37.5
23:00 1015 29.97 844 24.92 10.1 50.1 56 1.8 35.3
23:05 1015 29.97 844 24.92 10.3 50.5 58 2.5 36.6
23:10 1015 29.97 844 24.92 10.3 50.5 58 2.3 36.2
23:15 1015 29.97 844 24.92 10.3 50.5 58 2.4 36.3
23:20 1015 29.97 844 24.92 10.2 50.4 58 2.4 36.2
23:25 1015 29.97 844 24.92 10.1 50.3 57 2.2 35.9
23:30 1015 29.97 844 24.92 10 50.1 59 2.5 36.5
23:35 1015 29.97 844 24.92 9.9 49.9 59 2.3 36.2
23:40 1015 29.97 844 24.92 9.9 49.8 59 2.4 36.3
23:45 1015 29.97 844 24.92 9.7 49.5 60 2.3 36.2
23:50 1015 29.97 844 24.92 9.4 49 59 1.8 35.2
23:55 1015 29.97 844 24.92 9.4 48.9 59 1.7 35.1
24:00 1015 29.97 844 24.92 9.3 48.7 59 1.6 34.9